Aviation Digital Data Service (ADDS)

Output produced by METARs form (0635 UTC 27 March 2017)
found at http://www.aviationweather.gov/adds/metars/
 
TAF HBBA 261500Z 2618/2724 00000KT CAVOK 
     BECMG 2702/2704 36003KT 9999 FEW025 SCT090 
     BECMG 2707/2709 18008KT 9999 FEW030 SCT100 
     PROB30 
     TEMPO 2713/2717 08015G25KT 5000 TSRA OR SHRA FEW025CB SCT030 BKN100 
     BECMG 2720/2722 00000KT CAVOK